createdAt,value
2017-12-13T00:04:27.493Z,30
2017-12-13T00:14:15.054Z,31
2017-12-13T00:24:15.179Z,26
2017-12-13T00:34:15.083Z,25
2017-12-13T00:44:15.174Z,27
2017-12-13T00:54:15.027Z,24
2017-12-13T01:04:15.185Z,26
2017-12-13T01:14:15.096Z,24
2017-12-13T01:24:15.115Z,23
2017-12-13T01:34:15.160Z,20
2017-12-13T01:44:15.058Z,17
2017-12-13T01:54:15.136Z,18
2017-12-13T02:04:15.102Z,12
2017-12-13T02:14:15.160Z,17
2017-12-13T02:24:15.108Z,13
2017-12-13T02:34:15.226Z,11
2017-12-13T02:44:15.168Z,13
2017-12-13T02:54:15.237Z,13
2017-12-13T03:04:15.170Z,11
2017-12-13T03:14:15.212Z,12
2017-12-13T03:24:15.198Z,13
2017-12-13T03:34:15.168Z,14
2017-12-13T03:44:15.251Z,11
2017-12-13T03:54:15.216Z,16
2017-12-13T04:04:15.302Z,12
2017-12-13T04:14:15.275Z,12
2017-12-13T04:24:15.274Z,12
2017-12-13T04:34:15.268Z,11
2017-12-13T04:44:15.321Z,14
2017-12-13T04:54:15.224Z,10
2017-12-13T05:04:15.272Z,9
2017-12-13T05:14:15.250Z,9
2017-12-13T05:24:15.344Z,11
2017-12-13T05:34:15.279Z,7
2017-12-13T05:44:15.257Z,8
2017-12-13T05:54:15.310Z,9
2017-12-13T06:04:15.273Z,7
2017-12-13T06:14:15.342Z,6
2017-12-13T06:24:15.296Z,10
2017-12-13T06:34:15.369Z,8
2017-12-13T06:44:15.297Z,6
2017-12-13T06:54:15.380Z,7
2017-12-13T07:04:15.401Z,8
2017-12-13T07:14:15.326Z,9
2017-12-13T07:24:15.354Z,8
2017-12-13T07:34:15.334Z,7
2017-12-13T07:44:15.374Z,8
2017-12-13T07:54:15.439Z,9
2017-12-13T08:04:15.452Z,6
2017-12-13T08:14:15.410Z,6
2017-12-13T08:24:15.446Z,6
2017-12-13T08:34:15.379Z,6
2017-12-13T08:44:15.387Z,6
2017-12-13T08:54:15.472Z,6
2017-12-13T09:04:15.456Z,6
2017-12-13T09:14:15.636Z,4
2017-12-13T09:24:15.483Z,4
2017-12-13T09:34:15.524Z,5
2017-12-13T09:44:16.572Z,5
2017-12-13T09:54:16.634Z,4
2017-12-13T10:04:15.585Z,4
2017-12-13T10:14:16.118Z,4
2017-12-13T10:24:16.506Z,4
2017-12-13T10:34:15.720Z,4
2017-12-13T10:44:16.958Z,5
2017-12-13T10:54:15.640Z,4
2017-12-13T11:04:15.559Z,4
2017-12-13T11:14:15.582Z,6
2017-12-13T11:24:15.604Z,5
2017-12-13T11:34:15.536Z,3
2017-12-13T11:44:15.569Z,2
2017-12-13T11:54:15.662Z,3
2017-12-13T12:04:15.591Z,1
2017-12-13T12:14:15.562Z,1
2017-12-13T12:24:15.624Z,1
2017-12-13T12:34:15.598Z,1
2017-12-13T12:44:15.683Z,2
2017-12-13T12:54:15.620Z,2
2017-12-13T13:04:15.712Z,1
2017-12-13T13:14:15.742Z,3
2017-12-13T13:24:16.603Z,2
2017-12-13T13:34:15.654Z,1
2017-12-13T13:44:15.776Z,2
2017-12-13T13:54:16.335Z,2
2017-12-13T14:04:15.683Z,2
2017-12-13T14:14:15.703Z,2
2017-12-13T14:24:15.688Z,2
2017-12-13T14:34:15.812Z,2
2017-12-13T14:44:15.751Z,2
2017-12-13T14:54:15.784Z,2
2017-12-13T15:04:15.754Z,2
2017-12-13T15:14:15.793Z,2
2017-12-13T15:24:15.764Z,3
2017-12-13T15:34:15.717Z,3
2017-12-13T15:44:15.810Z,5
2017-12-13T15:54:15.700Z,6
2017-12-13T16:04:16.786Z,6
2017-12-13T16:14:15.732Z,8
2017-12-13T16:24:15.885Z,8
2017-12-13T16:34:15.771Z,7
2017-12-13T16:44:15.863Z,6
2017-12-13T16:54:15.845Z,7
2017-12-13T17:04:16.036Z,6
2017-12-13T17:14:15.953Z,9
2017-12-13T17:24:15.902Z,7
2017-12-13T17:34:15.792Z,8
2017-12-13T17:44:15.984Z,7
2017-12-13T17:54:15.956Z,7
2017-12-13T18:04:15.855Z,7
2017-12-13T18:14:15.921Z,6
2017-12-13T18:24:15.917Z,6
2017-12-13T18:34:16.042Z,6
2017-12-13T18:44:15.928Z,5
2017-12-13T18:54:15.947Z,6
2017-12-13T19:04:15.914Z,4
2017-12-13T19:14:16.030Z,4
2017-12-13T19:24:15.989Z,4
2017-12-13T19:34:15.894Z,4
2017-12-13T19:44:15.972Z,4
2017-12-13T19:54:16.069Z,4
2017-12-13T20:04:15.984Z,3
2017-12-13T20:14:16.090Z,3
2017-12-13T20:24:16.006Z,3
2017-12-13T20:34:16.050Z,2
2017-12-13T20:44:16.089Z,2
2017-12-13T20:54:15.984Z,2
2017-12-13T21:04:16.063Z,3
2017-12-13T21:14:16.053Z,3
2017-12-13T21:24:16.044Z,3
2017-12-13T21:34:17.125Z,2
2017-12-13T21:44:16.058Z,2
2017-12-13T21:54:15.986Z,2
2017-12-13T22:04:16.084Z,2
2017-12-13T22:14:16.257Z,1
2017-12-13T22:24:16.186Z,2
2017-12-13T22:34:16.009Z,1
2017-12-13T22:44:16.371Z,3
2017-12-13T22:54:16.127Z,1
2017-12-13T23:04:16.501Z,2
2017-12-13T23:14:16.069Z,3
2017-12-13T23:24:16.286Z,4
2017-12-13T23:34:16.161Z,5
2017-12-13T23:44:16.261Z,7
2017-12-13T23:54:16.360Z,5
